createdAt,value
2023-04-11T00:01:23.660Z,63.44
2023-04-11T00:03:53.265Z,63.22
2023-04-11T00:06:22.023Z,62.71
2023-04-11T00:08:50.699Z,62.94
2023-04-11T00:11:19.794Z,63.13
2023-04-11T00:13:48.742Z,61.88
2023-04-11T00:16:19.609Z,61.82
2023-04-11T00:18:49.764Z,62.37
2023-04-11T00:21:18.735Z,61.85
2023-04-11T00:23:47.428Z,62.69
2023-04-11T00:26:16.348Z,62.61
2023-04-11T00:28:45.308Z,62.87
2023-04-11T00:31:16.481Z,63.47
2023-04-11T00:33:45.572Z,63.44
2023-04-11T00:36:15.672Z,63.02
2023-04-11T00:38:44.721Z,63.24
2023-04-11T00:41:13.782Z,62.93
2023-04-11T00:43:42.474Z,62.85
2023-04-11T00:46:11.475Z,62.63
2023-04-11T00:48:41.513Z,62.13
2023-04-11T00:51:10.468Z,63.04
2023-04-11T00:53:40.585Z,63.57
2023-04-11T00:56:11.280Z,63.80
2023-04-11T00:58:40.559Z,63.84
2023-04-11T01:01:10.107Z,63.49
2023-04-11T01:03:41.358Z,63.50
2023-04-11T01:06:11.742Z,63.80
2023-04-11T01:08:42.572Z,63.15
2023-04-11T01:11:12.710Z,64.49
2023-04-11T01:13:42.713Z,64.79
2023-04-11T01:16:11.895Z,64.58
2023-04-11T01:18:40.751Z,64.99
2023-04-11T01:21:10.099Z,65.10
2023-04-11T01:23:41.154Z,64.67
2023-04-11T01:26:09.838Z,64.00
2023-04-11T01:28:38.472Z,63.00
2023-04-11T01:31:08.348Z,63.09
2023-04-11T01:33:37.294Z,63.66
2023-04-11T01:36:07.993Z,63.67
2023-04-11T01:38:36.898Z,63.49
2023-04-11T01:41:08.340Z,63.65
2023-04-11T01:43:37.328Z,63.62
2023-04-11T01:46:06.299Z,64.37
2023-04-11T01:48:35.086Z,63.91
2023-04-11T01:51:04.150Z,64.19
2023-04-11T01:53:32.837Z,64.12
2023-04-11T01:56:01.658Z,64.41
2023-04-11T01:58:31.976Z,65.12
2023-04-11T02:01:01.792Z,64.16
2023-04-11T02:03:31.306Z,63.75
2023-04-11T02:06:00.390Z,63.78
2023-04-11T02:08:29.058Z,64.32
2023-04-11T02:10:58.163Z,64.14
2023-04-11T02:13:26.859Z,64.23
2023-04-11T02:15:56.966Z,64.61
2023-04-11T02:18:30.106Z,64.63
2023-04-11T02:20:58.797Z,65.70
2023-04-11T02:23:29.508Z,65.27
2023-04-11T02:25:58.505Z,64.89
2023-04-11T02:28:28.894Z,65.20
2023-04-11T02:30:59.301Z,65.31
2023-04-11T02:33:28.009Z,65.54
2023-04-11T02:35:56.693Z,65.58
2023-04-11T02:38:25.825Z,66.39
2023-04-11T02:40:54.422Z,65.96
2023-04-11T02:43:23.003Z,65.88
2023-04-11T02:45:56.433Z,66.14
2023-04-11T02:48:35.301Z,66.65
2023-04-11T02:51:04.521Z,66.42
2023-04-11T02:53:33.164Z,66.76
2023-04-11T02:56:02.413Z,66.52
2023-04-11T02:58:31.352Z,67.07
2023-04-11T03:01:01.715Z,66.87
2023-04-11T03:03:30.554Z,67.47
2023-04-11T03:06:00.952Z,67.62
2023-04-11T03:08:29.653Z,68.55
2023-04-11T03:10:58.369Z,68.08
2023-04-11T03:13:27.548Z,68.08
2023-04-11T03:15:56.247Z,67.76
2023-04-11T03:18:27.252Z,67.47
2023-04-11T03:20:57.108Z,67.21
2023-04-11T03:23:27.250Z,67.10
2023-04-11T03:25:56.572Z,66.63
2023-04-11T03:28:25.380Z,66.80
2023-04-11T03:30:55.474Z,67.57
2023-04-11T03:33:25.374Z,67.39
2023-04-11T03:35:54.021Z,67.75
2023-04-11T03:38:22.681Z,67.68
2023-04-11T03:40:52.985Z,68.01
2023-04-11T03:43:21.690Z,67.94
2023-04-11T03:45:51.862Z,67.75
2023-04-11T03:48:22.139Z,67.56
2023-04-11T03:50:51.309Z,68.01
2023-04-11T03:53:22.726Z,68.02
2023-04-11T03:55:54.427Z,67.53
2023-04-11T03:58:23.585Z,67.78
2023-04-11T04:00:52.458Z,67.77
2023-04-11T04:03:21.693Z,67.91
2023-04-11T04:05:50.569Z,68.81
2023-04-11T04:08:19.415Z,68.84
2023-04-11T04:10:48.485Z,68.69
2023-04-11T04:13:19.099Z,68.26
2023-04-11T04:15:48.287Z,68.21
2023-04-11T04:18:17.290Z,68.49
2023-04-11T04:20:47.401Z,68.04
2023-04-11T04:23:18.124Z,68.60
2023-04-11T04:25:49.068Z,67.92
2023-04-11T04:28:22.300Z,67.55
2023-04-11T04:30:54.236Z,67.04
2023-04-11T04:33:24.027Z,66.56
2023-04-11T04:35:58.166Z,66.95
2023-04-11T04:38:29.024Z,67.75
2023-04-11T04:40:57.777Z,69.86
2023-04-11T04:43:32.392Z,68.72
2023-04-11T04:46:04.374Z,67.72
2023-04-11T04:48:33.998Z,67.59
2023-04-11T04:51:03.088Z,67.61
2023-04-11T04:53:34.761Z,66.92
2023-04-11T04:56:03.871Z,68.26
2023-04-11T04:58:34.494Z,66.56
2023-04-11T05:01:03.594Z,66.37
2023-04-11T05:03:35.034Z,65.98
2023-04-11T05:06:03.956Z,65.78
2023-04-11T05:08:33.553Z,65.13
2023-04-11T05:11:02.667Z,65.73
2023-04-11T05:13:34.641Z,64.67
2023-04-11T05:16:04.408Z,63.32
2023-04-11T05:18:33.108Z,62.69
2023-04-11T05:21:02.385Z,63.30
2023-04-11T05:23:31.819Z,63.65
2023-04-11T05:26:01.308Z,64.24
2023-04-11T05:28:32.183Z,64.90
2023-04-11T05:31:03.157Z,63.83
2023-04-11T05:33:32.107Z,64.12
2023-04-11T05:36:01.520Z,63.78
2023-04-11T05:38:34.056Z,62.17
2023-04-11T05:41:02.971Z,61.13
2023-04-11T05:43:31.617Z,60.91
2023-04-11T05:46:04.830Z,60.91
2023-04-11T05:48:33.779Z,61.74
2023-04-11T05:51:02.617Z,61.85
2023-04-11T05:53:31.984Z,62.07
2023-04-11T05:56:01.411Z,62.56
2023-04-11T05:58:30.886Z,61.78
2023-04-11T06:01:00.844Z,61.60
2023-04-11T06:03:31.310Z,61.22
2023-04-11T06:06:01.499Z,59.31
2023-04-11T06:08:30.953Z,60.24
2023-04-11T06:10:59.683Z,61.20
2023-04-11T06:13:28.328Z,60.90
2023-04-11T06:15:57.391Z,60.87
2023-04-11T06:18:26.077Z,59.65
2023-04-11T06:20:58.087Z,59.32
2023-04-11T06:23:27.026Z,59.44
2023-04-11T06:25:55.656Z,59.45
2023-04-11T06:28:24.331Z,59.80
2023-04-11T06:30:53.296Z,58.52
2023-04-11T06:33:22.216Z,59.28
2023-04-11T06:35:51.111Z,60.27
2023-04-11T06:38:21.492Z,59.41
2023-04-11T06:40:51.600Z,60.07
2023-04-11T06:43:20.680Z,59.88
2023-04-11T06:45:49.935Z,59.49
2023-04-11T06:48:20.422Z,57.94
2023-04-11T06:50:49.570Z,59.80
2023-04-11T06:53:18.257Z,59.86
2023-04-11T06:55:50.857Z,58.69
2023-04-11T06:58:19.855Z,59.13
2023-04-11T07:00:48.535Z,59.53
2023-04-11T07:03:17.190Z,58.19
2023-04-11T07:05:46.430Z,58.01
2023-04-11T07:08:17.425Z,58.70
2023-04-11T07:10:46.533Z,58.76
2023-04-11T07:13:16.533Z,58.56
2023-04-11T07:15:45.300Z,58.35
2023-04-11T07:18:14.858Z,57.20
2023-04-11T07:20:43.692Z,55.51
2023-04-11T07:23:12.352Z,55.96
2023-04-11T07:25:41.326Z,54.73
2023-04-11T07:28:09.909Z,53.91
2023-04-11T07:30:39.901Z,53.65
2023-04-11T07:33:09.127Z,53.17
2023-04-11T07:35:37.798Z,52.37
2023-04-11T07:38:06.447Z,52.82
2023-04-11T07:40:35.360Z,52.50
2023-04-11T07:43:04.018Z,52.60
2023-04-11T07:45:33.493Z,52.14
2023-04-11T07:48:03.873Z,52.03
2023-04-11T07:50:32.606Z,50.94
2023-04-11T07:53:01.569Z,50.67
2023-04-11T07:55:30.511Z,50.92
2023-04-11T07:57:59.126Z,51.61
2023-04-11T08:00:28.831Z,50.72
2023-04-11T08:02:58.924Z,50.88
2023-04-11T08:05:29.171Z,50.83
2023-04-11T08:07:58.330Z,50.71
2023-04-11T08:10:27.115Z,48.75
2023-04-11T08:12:56.436Z,47.83
2023-04-11T08:15:26.021Z,47.79
2023-04-11T08:17:56.434Z,48.12
2023-04-11T08:20:26.943Z,48.55
2023-04-11T08:22:56.988Z,47.80
2023-04-11T08:25:26.146Z,48.20
2023-04-11T08:27:54.898Z,48.25
2023-04-11T08:30:23.784Z,46.90
2023-04-11T08:32:52.731Z,47.52
2023-04-11T08:35:21.505Z,48.97
2023-04-11T08:37:51.508Z,48.06
2023-04-11T08:40:25.847Z,48.43
2023-04-11T08:43:00.528Z,48.33
2023-04-11T08:45:32.583Z,47.48
2023-04-11T08:48:01.145Z,47.53
2023-04-11T08:50:30.298Z,46.30
2023-04-11T08:53:02.986Z,45.92
2023-04-11T08:55:36.177Z,45.96
2023-04-11T08:58:04.826Z,46.80
2023-04-11T09:00:34.224Z,47.78
2023-04-11T09:03:04.800Z,47.25
2023-04-11T09:06:03.284Z,47.48
2023-04-11T09:08:39.365Z,47.59
2023-04-11T09:11:09.846Z,47.52
2023-04-11T09:13:38.562Z,47.17
2023-04-11T09:16:09.265Z,47.61
2023-04-11T09:18:39.561Z,47.22
2023-04-11T09:21:09.064Z,47.35
2023-04-11T09:23:38.803Z,46.17
2023-04-11T09:26:09.964Z,47.70
2023-04-11T09:28:43.326Z,46.60
2023-04-11T09:31:13.578Z,46.71
2023-04-11T09:33:53.515Z,45.36
2023-04-11T09:36:24.146Z,44.68
2023-04-11T09:38:53.891Z,45.03
2023-04-11T09:41:32.680Z,45.67
2023-04-11T09:44:02.411Z,45.66
2023-04-11T09:46:31.648Z,44.46
2023-04-11T09:49:03.360Z,44.45
2023-04-11T09:51:37.036Z,45.43
2023-04-11T09:54:06.490Z,45.84
2023-04-11T09:56:37.785Z,45.59
2023-04-11T09:59:06.538Z,45.10
2023-04-11T10:01:35.795Z,43.38
2023-04-11T10:04:05.450Z,42.04
2023-04-11T10:06:41.625Z,41.88
2023-04-11T10:09:11.972Z,42.31
2023-04-11T10:11:44.028Z,42.21
2023-04-11T10:14:42.953Z,43.16
2023-04-11T10:17:12.786Z,42.32
2023-04-11T10:19:42.924Z,42.09
2023-04-11T10:22:12.659Z,42.65
2023-04-11T10:24:41.566Z,43.13
2023-04-11T10:27:11.648Z,43.25
2023-04-11T10:29:55.817Z,42.92
2023-04-11T10:32:25.958Z,42.47
2023-04-11T10:35:31.325Z,41.67
2023-04-11T10:38:00.404Z,42.23
2023-04-11T10:40:29.039Z,43.36
2023-04-11T10:43:23.139Z,43.62
2023-04-11T10:46:19.675Z,43.38
2023-04-11T10:48:58.783Z,43.92
2023-04-11T10:51:29.087Z,41.19
2023-04-11T10:53:59.572Z,41.88
2023-04-11T10:56:56.235Z,42.16
2023-04-11T10:59:59.567Z,41.53
2023-04-11T11:02:39.528Z,40.79
2023-04-11T11:05:18.941Z,40.78
2023-04-11T11:07:49.409Z,39.63
2023-04-11T11:10:36.087Z,40.02
2023-04-11T11:13:05.323Z,39.79
2023-04-11T11:15:37.728Z,39.14
2023-04-11T11:18:09.215Z,39.21
2023-04-11T11:20:38.598Z,40.07
2023-04-11T11:23:08.844Z,37.13
2023-04-11T11:25:37.887Z,37.10
2023-04-11T11:28:09.134Z,37.46
2023-04-11T11:30:55.041Z,38.21
2023-04-11T11:33:27.748Z,36.29
2023-04-11T11:35:58.750Z,37.08
2023-04-11T11:38:29.468Z,36.72
2023-04-11T11:40:59.409Z,36.71
2023-04-11T11:43:28.678Z,37.31
2023-04-11T11:48:44.596Z,36.56
2023-04-11T11:51:14.234Z,36.14
2023-04-11T11:53:43.403Z,35.36
2023-04-11T11:56:15.645Z,35.00
2023-04-11T11:58:45.832Z,35.57
2023-04-11T12:01:17.281Z,35.95
2023-04-11T12:03:51.498Z,35.55
2023-04-11T12:06:20.905Z,36.00
2023-04-11T12:08:53.951Z,36.65
2023-04-11T12:11:25.293Z,34.72
2023-04-11T12:13:54.910Z,35.81
2023-04-11T12:16:25.619Z,35.16
2023-04-11T12:18:54.650Z,34.01
2023-04-11T12:21:23.402Z,33.52
2023-04-11T12:23:52.003Z,33.40
2023-04-11T12:26:21.796Z,33.73
2023-04-11T12:28:51.063Z,34.65
2023-04-11T12:31:20.576Z,35.16
2023-04-11T12:33:50.848Z,35.46
2023-04-11T12:36:19.541Z,34.88
2023-04-11T12:38:48.137Z,35.00
2023-04-11T12:43:48.564Z,34.82
2023-04-11T12:46:18.804Z,34.38
2023-04-11T12:48:47.481Z,32.61
2023-04-11T12:51:17.451Z,33.42
2023-04-11T12:53:46.464Z,32.61
2023-04-11T12:56:15.431Z,31.69
2023-04-11T12:58:46.414Z,30.80
2023-04-11T13:01:16.421Z,30.54
2023-04-11T13:03:45.303Z,29.66
2023-04-11T13:06:14.104Z,30.87
2023-04-11T13:08:44.420Z,31.96
2023-04-11T13:11:13.088Z,32.41
2023-04-11T13:13:41.749Z,32.74
2023-04-11T13:16:12.459Z,32.38
2023-04-11T13:18:41.243Z,32.69
2023-04-11T13:21:10.211Z,32.08
2023-04-11T13:23:38.875Z,32.27
2023-04-11T13:26:09.360Z,32.46
2023-04-11T13:28:38.938Z,32.55
2023-04-11T13:31:10.351Z,33.25
2023-04-11T13:33:40.548Z,32.82
2023-04-11T13:36:10.480Z,33.20
2023-04-11T13:38:39.440Z,32.84
2023-04-11T13:41:09.656Z,33.74
2023-04-11T13:43:38.162Z,33.87
2023-04-11T13:46:07.581Z,34.23
2023-04-11T13:48:36.541Z,34.82
2023-04-11T13:51:05.692Z,34.09
2023-04-11T13:53:34.663Z,33.82
2023-04-11T13:56:04.165Z,33.44
2023-04-11T13:58:39.049Z,34.34
2023-04-11T14:01:08.424Z,34.45
2023-04-11T14:03:37.937Z,34.35
2023-04-11T14:06:08.867Z,35.03
2023-04-11T14:08:38.035Z,35.31
2023-04-11T14:11:06.881Z,34.08
2023-04-11T14:13:38.189Z,34.13
2023-04-11T14:16:09.225Z,34.87
2023-04-11T14:18:38.223Z,35.69
2023-04-11T14:21:08.185Z,36.15
2023-04-11T14:23:36.994Z,36.42
2023-04-11T14:26:06.442Z,37.27
2023-04-11T14:28:36.789Z,38.60
2023-04-11T14:31:05.779Z,39.09
2023-04-11T14:33:34.468Z,39.42
2023-04-11T14:36:03.361Z,39.40
2023-04-11T14:38:31.932Z,39.77
2023-04-11T14:41:00.794Z,40.90
2023-04-11T14:43:29.839Z,42.43
2023-04-11T14:45:59.951Z,42.98
2023-04-11T14:48:28.877Z,43.91
2023-04-11T14:50:57.555Z,45.41
2023-04-11T14:53:26.422Z,47.29
2023-04-11T14:55:55.347Z,49.49
2023-04-11T14:58:24.349Z,52.66
2023-04-11T15:00:53.320Z,54.64
2023-04-11T15:03:23.878Z,57.92
2023-04-11T15:05:52.724Z,60.64
2023-04-11T15:08:21.465Z,62.88
2023-04-11T15:10:54.074Z,64.72
2023-04-11T15:13:23.479Z,66.40
2023-04-11T15:15:53.547Z,68.83
2023-04-11T15:18:28.167Z,70.13
2023-04-11T15:20:57.930Z,72.65
2023-04-11T15:23:26.900Z,73.24
2023-04-11T15:25:56.832Z,73.38
2023-04-11T15:28:26.837Z,73.70
2023-04-11T15:30:55.953Z,73.90
2023-04-11T15:33:26.631Z,73.93
2023-04-11T15:35:58.397Z,72.97
2023-04-11T15:38:28.827Z,74.84
2023-04-11T15:41:00.045Z,75.18
2023-04-11T15:43:28.914Z,74.95
2023-04-11T15:45:57.933Z,75.33
2023-04-11T15:48:27.942Z,75.76
2023-04-11T15:50:56.593Z,75.72
2023-04-11T15:53:25.641Z,74.72
2023-04-11T15:55:54.303Z,74.47
2023-04-11T15:58:22.972Z,74.40
2023-04-11T16:00:54.899Z,74.64
2023-04-11T16:03:31.535Z,74.95
2023-04-11T16:06:02.451Z,73.78
2023-04-11T16:08:31.365Z,73.09
2023-04-11T16:11:00.025Z,73.04
2023-04-11T16:13:28.668Z,72.40
2023-04-11T16:15:58.263Z,71.43
2023-04-11T16:18:26.938Z,69.74
2023-04-11T16:20:55.621Z,70.56
2023-04-11T16:23:25.990Z,71.17
2023-04-11T16:25:54.635Z,70.48
2023-04-11T16:28:23.404Z,69.62
2023-04-11T16:30:52.367Z,68.96
2023-04-11T16:33:21.013Z,70.31
2023-04-11T16:35:49.655Z,69.19
2023-04-11T16:38:19.129Z,70.61
2023-04-11T16:40:49.259Z,71.22
2023-04-11T16:43:18.117Z,69.71
2023-04-11T16:45:46.783Z,69.51
2023-04-11T16:48:15.519Z,69.12
2023-04-11T16:50:44.446Z,67.97
2023-04-11T16:53:13.053Z,67.86
2023-04-11T16:55:41.742Z,68.60
2023-04-11T16:58:12.681Z,68.72
2023-04-11T17:00:41.349Z,69.06
2023-04-11T17:03:10.419Z,68.29
2023-04-11T17:05:39.231Z,68.12
2023-04-11T17:08:07.866Z,68.61
2023-04-11T17:10:36.778Z,67.47
2023-04-11T17:13:05.412Z,67.67
2023-04-11T17:15:36.830Z,66.86
2023-04-11T17:18:05.860Z,67.80
2023-04-11T17:20:34.531Z,68.04
2023-04-11T17:23:03.093Z,68.32
2023-04-11T17:25:32.095Z,68.58
2023-04-11T17:28:01.585Z,69.12
2023-04-11T17:30:32.286Z,69.04
2023-04-11T17:33:03.475Z,69.34
2023-04-11T17:35:32.259Z,67.85
2023-04-11T17:38:04.099Z,69.52
2023-04-11T17:40:32.796Z,68.63
2023-04-11T17:43:01.983Z,68.94
2023-04-11T17:45:31.678Z,68.33
2023-04-11T17:48:01.272Z,68.00
2023-04-11T17:50:31.495Z,68.18
2023-04-11T17:53:00.557Z,67.99
2023-04-11T17:55:29.145Z,68.73
2023-04-11T17:57:58.188Z,68.56
2023-04-11T18:00:30.234Z,68.67
2023-04-11T18:02:59.981Z,68.92
2023-04-11T18:05:31.753Z,68.42
2023-04-11T18:08:02.733Z,68.35
2023-04-11T18:10:31.558Z,68.79
2023-04-11T18:13:00.681Z,69.25
2023-04-11T18:15:29.950Z,68.63
2023-04-11T18:17:59.085Z,69.82
2023-04-11T18:20:28.182Z,69.50
2023-04-11T18:22:58.347Z,70.55
2023-04-11T18:25:26.967Z,69.70
2023-04-11T18:27:56.176Z,68.83
2023-04-11T18:30:26.070Z,68.62
2023-04-11T18:32:55.862Z,68.34
2023-04-11T18:35:25.568Z,68.05
2023-04-11T18:37:56.429Z,68.24
2023-04-11T18:40:27.562Z,67.81
2023-04-11T18:42:58.453Z,68.00
2023-04-11T18:45:29.005Z,67.92
2023-04-11T18:47:58.301Z,67.94
2023-04-11T18:50:28.644Z,67.86
2023-04-11T18:53:03.664Z,67.81
2023-04-11T18:55:37.147Z,67.57
2023-04-11T18:58:09.201Z,67.73
2023-04-11T19:00:41.409Z,67.59
2023-04-11T19:03:15.271Z,67.01
2023-04-11T19:05:46.670Z,67.08
2023-04-11T19:08:15.797Z,66.16
2023-04-11T19:10:47.441Z,66.06
2023-04-11T19:13:17.262Z,65.75
2023-04-11T19:15:46.911Z,65.00
2023-04-11T19:18:16.649Z,64.98
2023-04-11T19:20:47.862Z,65.72
2023-04-11T19:23:18.893Z,65.41
2023-04-11T19:25:50.037Z,65.24
2023-04-11T19:28:18.859Z,64.92
2023-04-11T19:30:49.279Z,64.49
2023-04-11T19:33:19.391Z,64.74
2023-04-11T19:35:48.997Z,65.07
2023-04-11T19:38:19.280Z,64.38
2023-04-11T19:40:51.111Z,65.26
2023-04-11T19:43:21.798Z,65.67
2023-04-11T19:45:51.921Z,65.29
2023-04-11T19:48:22.971Z,65.18
2023-04-11T19:50:54.662Z,65.64
2023-04-11T19:53:24.085Z,65.20
2023-04-11T19:55:57.224Z,65.34
2023-04-11T19:58:27.045Z,65.06
2023-04-11T20:00:57.026Z,65.12
2023-04-11T20:03:27.265Z,65.21
2023-04-11T20:05:57.297Z,64.85
2023-04-11T20:08:28.595Z,64.50
2023-04-11T20:11:04.478Z,62.67
2023-04-11T20:13:37.784Z,62.66
2023-04-11T20:16:21.488Z,62.80
2023-04-11T20:18:55.092Z,63.47
2023-04-11T20:21:24.255Z,65.28
2023-04-11T20:23:54.359Z,64.92
2023-04-11T20:26:28.044Z,67.88
2023-04-11T20:29:00.543Z,71.40
2023-04-11T20:31:29.342Z,72.83
2023-04-11T20:33:58.844Z,74.58
2023-04-11T20:36:27.838Z,75.39
2023-04-11T20:38:58.125Z,75.92
2023-04-11T20:41:32.391Z,76.14
2023-04-11T20:44:01.144Z,76.19
2023-04-11T20:46:31.665Z,76.17
2023-04-11T20:49:04.230Z,75.09
2023-04-11T20:51:36.120Z,75.94
2023-04-11T20:54:07.643Z,75.49
2023-04-11T20:56:38.101Z,75.57
2023-04-11T20:59:07.438Z,74.10
2023-04-11T21:01:40.597Z,72.61
2023-04-11T21:04:11.686Z,72.59
2023-04-11T21:06:41.132Z,71.44
2023-04-11T21:09:10.579Z,71.60
2023-04-11T21:11:43.135Z,72.14
2023-04-11T21:14:12.933Z,70.67
2023-04-11T21:16:43.180Z,70.96
2023-04-11T21:19:12.199Z,71.31
2023-04-11T21:21:41.238Z,70.86
2023-04-11T21:24:10.071Z,70.39
2023-04-11T21:26:41.483Z,70.62
2023-04-11T21:29:12.032Z,71.64
2023-04-11T21:31:41.096Z,71.02
2023-04-11T21:34:09.808Z,73.45
2023-04-11T21:36:43.224Z,73.80
2023-04-11T21:39:12.166Z,74.48
2023-04-11T21:41:42.256Z,74.06
2023-04-11T21:44:10.977Z,75.22
2023-04-11T21:46:40.218Z,74.84
2023-04-11T21:49:08.921Z,74.83
2023-04-11T21:51:37.496Z,74.53
2023-04-11T21:54:07.021Z,74.80
2023-04-11T21:56:35.811Z,74.66
2023-04-11T21:59:05.942Z,74.42
2023-04-11T22:01:38.910Z,74.54
2023-04-11T22:04:10.607Z,73.80
2023-04-11T22:06:46.538Z,74.59
2023-04-11T22:09:15.882Z,74.95
2023-04-11T22:11:44.568Z,76.06
2023-04-11T22:14:16.376Z,76.79
2023-04-11T22:16:49.193Z,76.41
2023-04-11T22:19:19.156Z,75.25
2023-04-11T22:21:48.761Z,74.70
2023-04-11T22:24:17.563Z,73.85
2023-04-11T22:26:49.113Z,74.07
2023-04-11T22:29:21.736Z,74.77
2023-04-11T22:31:50.864Z,73.28
2023-04-11T22:34:19.859Z,72.30
2023-04-11T22:36:48.544Z,72.23
2023-04-11T22:39:17.201Z,71.07
2023-04-11T22:41:47.794Z,71.29
2023-04-11T22:44:16.585Z,70.83
2023-04-11T22:46:59.831Z,70.30
2023-04-11T22:49:28.963Z,69.51
2023-04-11T22:51:59.400Z,70.91
2023-04-11T22:54:28.497Z,70.03
2023-04-11T22:56:59.005Z,69.41
2023-04-11T22:59:28.755Z,69.86
2023-04-11T23:01:58.914Z,71.22
2023-04-11T23:04:27.884Z,69.81
2023-04-11T23:06:56.533Z,69.36
2023-04-11T23:09:25.333Z,69.34
2023-04-11T23:11:54.269Z,68.76
2023-04-11T23:14:22.891Z,67.58
2023-04-11T23:16:51.655Z,68.02
2023-04-11T23:19:21.935Z,67.38
2023-04-11T23:21:50.661Z,68.39
2023-04-11T23:24:19.389Z,68.11
2023-04-11T23:26:48.249Z,68.15
2023-04-11T23:29:17.213Z,67.94
2023-04-11T23:31:45.931Z,68.06
2023-04-11T23:34:15.330Z,67.02
2023-04-11T23:36:46.032Z,68.15
2023-04-11T23:39:14.956Z,67.39
2023-04-11T23:41:45.760Z,67.04
2023-04-11T23:44:14.928Z,67.05
2023-04-11T23:46:43.851Z,68.21
2023-04-11T23:49:12.506Z,68.80
2023-04-11T23:51:41.130Z,68.51
2023-04-11T23:54:11.373Z,68.52
2023-04-11T23:56:40.058Z,68.95
2023-04-11T23:59:08.667Z,69.05
